createdAt,value
2022-12-23T00:00:00.472Z,171.9
2022-12-23T00:05:00.624Z,176.8
2022-12-23T00:10:00.603Z,188.7
2022-12-23T00:15:00.723Z,185.2
2022-12-23T00:20:00.612Z,187.6
2022-12-23T00:25:00.597Z,185.8
2022-12-23T00:30:00.461Z,181.6
2022-12-23T00:35:00.622Z,185.9
2022-12-23T00:40:07.289Z,188.1
2022-12-23T00:45:00.651Z,181.4
2022-12-23T00:50:00.485Z,176.3
2022-12-23T00:55:00.641Z,160.7
2022-12-23T01:00:00.464Z,179.9
2022-12-23T01:05:01.773Z,158.3
2022-12-23T01:10:00.493Z,235.2
2022-12-23T01:15:00.806Z,171.4
2022-12-23T01:20:00.519Z,159.0
2022-12-23T01:25:00.681Z,179.3
2022-12-23T01:30:00.633Z,177.6
2022-12-23T01:35:00.639Z,180.8
2022-12-23T01:40:00.515Z,169.6
2022-12-23T01:45:00.704Z,175.6
2022-12-23T01:50:00.500Z,180.1
2022-12-23T01:55:00.663Z,186.2
2022-12-23T02:00:00.500Z,188.3
2022-12-23T02:05:00.624Z,176.6
2022-12-23T02:10:00.492Z,179.9
2022-12-23T02:15:00.621Z,177.9
2022-12-23T02:20:00.458Z,174.4
2022-12-23T02:25:00.589Z,187.5
2022-12-23T02:30:00.514Z,176.5
2022-12-23T02:35:00.642Z,166.2
2022-12-23T02:40:00.503Z,163.3
2022-12-23T02:45:00.613Z,179.7
2022-12-23T02:50:00.475Z,160.4
2022-12-23T02:55:00.601Z,183.8
2022-12-23T03:00:00.470Z,176.2
2022-12-23T03:05:01.609Z,157.6
2022-12-23T03:10:00.580Z,181.0
2022-12-23T03:15:00.584Z,180.2
2022-12-23T03:20:00.472Z,177.8
2022-12-23T03:25:00.698Z,180.0
2022-12-23T03:30:00.472Z,158.1
2022-12-23T03:35:00.590Z,173.1
2022-12-23T03:40:00.571Z,180.0
2022-12-23T03:45:39.620Z,178.5
2022-12-23T03:50:00.486Z,180.0
2022-12-23T03:55:00.645Z,180.0
2022-12-23T04:00:00.557Z,180.0
2022-12-23T04:05:00.671Z,180.0
2022-12-23T04:10:00.721Z,331.6
2022-12-23T04:15:00.652Z,41.7
2022-12-23T04:20:00.626Z,45.0
2022-12-23T04:25:00.660Z,66.3
2022-12-23T04:30:00.480Z,67.5
2022-12-23T04:35:00.624Z,67.5
2022-12-23T04:40:00.595Z,67.5
2022-12-23T04:45:00.676Z,67.5
2022-12-23T04:50:00.485Z,67.5
2022-12-23T04:55:00.712Z,45.2
2022-12-23T05:00:00.484Z,45.0
2022-12-23T05:05:00.630Z,45.0
2022-12-23T05:10:00.494Z,67.1
2022-12-23T05:15:00.686Z,67.5
2022-12-23T05:20:00.484Z,67.5
2022-12-23T05:25:00.637Z,67.5
2022-12-23T05:30:00.526Z,67.5
2022-12-23T05:35:00.672Z,48.8
2022-12-23T05:40:01.109Z,1.0
2022-12-23T05:45:00.639Z,0.0
2022-12-23T05:50:00.527Z,27.8
2022-12-23T05:55:00.640Z,23.8
2022-12-23T06:00:00.459Z,37.3
2022-12-23T06:05:00.645Z,44.8
2022-12-23T06:10:00.518Z,27.4
2022-12-23T06:15:00.785Z,22.5
2022-12-23T06:20:00.512Z,22.5
2022-12-23T06:25:00.610Z,33.4
2022-12-23T06:30:00.507Z,19.0
2022-12-23T06:35:00.590Z,41.8
2022-12-23T06:40:00.519Z,36.9
2022-12-23T06:45:00.616Z,22.6
2022-12-23T06:50:00.741Z,22.5
2022-12-23T06:55:00.614Z,22.5
2022-12-23T07:00:00.473Z,22.5
2022-12-23T07:05:00.604Z,22.5
2022-12-23T07:10:00.553Z,22.5
2022-12-23T07:15:00.648Z,22.5
2022-12-23T07:20:00.510Z,22.5
2022-12-23T07:25:00.699Z,22.5
2022-12-23T07:30:00.502Z,22.5
2022-12-23T07:35:00.610Z,22.4
2022-12-23T07:40:09.296Z,10.0
2022-12-23T07:45:00.631Z,19.9
2022-12-23T07:50:00.449Z,22.5
2022-12-23T07:55:00.701Z,275.4
2022-12-23T08:00:00.542Z,214.3
2022-12-23T08:05:01.090Z,207.0
2022-12-23T08:10:00.489Z,208.4
2022-12-23T08:15:00.683Z,224.8
2022-12-23T08:20:00.507Z,231.2
2022-12-23T08:25:00.636Z,210.5
2022-12-23T08:30:00.489Z,218.5
2022-12-23T08:35:00.614Z,215.8
2022-12-23T08:40:00.468Z,217.9
2022-12-23T08:45:00.611Z,268.7
2022-12-23T08:50:00.508Z,270.0
2022-12-23T08:55:00.658Z,272.7
2022-12-23T09:00:00.509Z,297.8
2022-12-23T09:05:00.623Z,289.4
2022-12-23T09:10:00.506Z,253.3
2022-12-23T09:15:00.796Z,241.2
2022-12-23T09:20:00.501Z,265.2
2022-12-23T09:25:05.818Z,270.0
2022-12-23T09:30:00.466Z,244.8
2022-12-23T09:35:00.658Z,247.0
2022-12-23T09:40:00.739Z,252.7
2022-12-23T09:45:00.670Z,261.4
2022-12-23T09:50:00.518Z,252.4
2022-12-23T09:55:00.609Z,242.4
2022-12-23T10:00:00.552Z,256.5
2022-12-23T10:05:00.653Z,229.7
2022-12-23T10:10:00.705Z,252.4
2022-12-23T10:15:00.691Z,240.3
2022-12-23T10:20:00.490Z,243.9
2022-12-23T10:25:00.646Z,243.4
2022-12-23T10:30:53.762Z,280.8
2022-12-23T10:35:00.661Z,282.8
2022-12-23T10:40:00.639Z,235.0
2022-12-23T10:45:00.648Z,259.0
2022-12-23T10:50:00.474Z,261.9
2022-12-23T10:55:00.610Z,269.9
2022-12-23T11:00:00.724Z,270.2
2022-12-23T11:05:00.613Z,279.2
2022-12-23T11:10:00.489Z,265.7
2022-12-23T11:15:00.673Z,237.2
2022-12-23T11:20:00.517Z,254.8
2022-12-23T11:25:00.784Z,243.1
2022-12-23T11:30:00.465Z,234.3
2022-12-23T11:35:00.883Z,248.4
2022-12-23T11:40:00.512Z,250.7
2022-12-23T11:45:00.769Z,212.2
2022-12-23T11:50:00.497Z,213.7
2022-12-23T11:55:00.717Z,243.7
2022-12-23T12:00:00.546Z,235.1
2022-12-23T12:05:00.693Z,227.9
2022-12-23T12:10:00.498Z,225.8
2022-12-23T12:15:00.764Z,238.9
2022-12-23T12:20:00.497Z,235.7
2022-12-23T12:25:00.609Z,228.8
2022-12-23T12:30:09.190Z,247.3
2022-12-23T12:35:00.580Z,229.8
2022-12-23T12:40:00.477Z,246.7
2022-12-23T12:45:00.839Z,242.0
2022-12-23T12:50:00.542Z,240.2
2022-12-23T12:55:00.669Z,255.1
2022-12-23T13:00:07.342Z,261.0
2022-12-23T13:05:00.640Z,226.2
2022-12-23T13:10:00.514Z,247.3
2022-12-23T13:15:00.662Z,249.4
2022-12-23T13:20:00.490Z,256.3
2022-12-23T13:25:00.669Z,255.2
2022-12-23T13:30:00.641Z,315.5
2022-12-23T13:35:00.617Z,282.4
2022-12-23T13:40:00.503Z,280.6
2022-12-23T13:45:00.657Z,232.5
2022-12-23T13:50:00.508Z,234.0
2022-12-23T13:55:00.668Z,240.4
2022-12-23T14:00:06.786Z,236.5
2022-12-23T14:05:00.659Z,224.9
2022-12-23T14:10:00.552Z,265.5
2022-12-23T14:15:00.648Z,289.4
2022-12-23T14:20:00.515Z,270.3
2022-12-23T14:25:00.641Z,248.0
2022-12-23T14:30:06.868Z,225.5
2022-12-23T14:35:00.647Z,242.3
2022-12-23T14:40:00.515Z,213.0
2022-12-23T14:45:00.620Z,208.4
2022-12-23T14:50:00.491Z,230.3
2022-12-23T14:55:31.160Z,244.8
2022-12-23T15:00:00.483Z,247.2
2022-12-23T15:05:00.687Z,223.5
2022-12-23T15:10:02.059Z,268.2
2022-12-23T15:15:00.640Z,283.6
2022-12-23T15:20:00.437Z,247.9
2022-12-23T15:25:00.602Z,205.5
2022-12-23T15:30:00.546Z,245.6
2022-12-23T15:35:00.651Z,252.1
2022-12-23T15:40:13.949Z,269.9
2022-12-23T15:45:00.628Z,270.0
2022-12-23T15:50:01.243Z,270.0
2022-12-23T15:55:00.661Z,238.2
2022-12-23T16:00:01.180Z,187.6
2022-12-23T16:05:00.746Z,187.0
2022-12-23T16:10:00.460Z,202.4
2022-12-23T16:15:00.663Z,201.3
2022-12-23T16:20:00.615Z,202.7
2022-12-23T16:25:00.709Z,203.4
2022-12-23T16:30:00.543Z,203.2
2022-12-23T16:35:02.223Z,190.4
2022-12-23T16:40:00.480Z,183.4
2022-12-23T16:45:00.614Z,183.7
2022-12-23T16:50:00.587Z,195.2
2022-12-23T16:55:00.586Z,191.5
2022-12-23T17:00:00.695Z,180.2
2022-12-23T17:05:00.724Z,201.9
2022-12-23T17:10:00.540Z,202.5
2022-12-23T17:15:00.638Z,202.5
2022-12-23T17:20:00.511Z,348.3
2022-12-23T17:25:00.638Z,42.1
2022-12-23T17:30:00.499Z,23.0
2022-12-23T17:35:00.605Z,42.6
2022-12-23T17:40:00.700Z,45.0
2022-12-23T17:45:00.653Z,56.2
2022-12-23T17:50:00.642Z,65.7
2022-12-23T17:55:00.673Z,89.4
2022-12-23T18:00:00.490Z,90.0
2022-12-23T18:05:00.625Z,65.7
2022-12-23T18:10:01.158Z,67.5
2022-12-23T18:15:00.703Z,66.5
2022-12-23T18:20:00.492Z,67.5
2022-12-23T18:25:00.706Z,69.8
2022-12-23T18:30:00.553Z,67.5
2022-12-23T18:35:00.676Z,67.5
2022-12-23T18:40:00.635Z,67.5
2022-12-23T18:45:00.656Z,67.5
2022-12-23T18:50:00.677Z,67.5
2022-12-23T18:55:00.604Z,111.5
2022-12-23T19:00:00.524Z,112.5
2022-12-23T19:05:00.623Z,112.5
2022-12-23T19:10:00.468Z,134.7
2022-12-23T19:15:00.602Z,157.3
2022-12-23T19:20:00.508Z,137.6
2022-12-23T19:25:07.172Z,135.0
2022-12-23T19:30:00.556Z,135.0
2022-12-23T19:35:00.629Z,102.6
2022-12-23T19:40:00.627Z,27.3
2022-12-23T19:45:01.529Z,42.0
2022-12-23T19:50:00.475Z,45.0
2022-12-23T19:55:00.654Z,57.2
2022-12-23T20:00:00.511Z,52.0
2022-12-23T20:05:00.695Z,35.5
2022-12-23T20:10:00.893Z,42.0
2022-12-23T20:15:00.681Z,47.0
2022-12-23T20:20:00.470Z,50.3
2022-12-23T20:25:00.593Z,52.8
2022-12-23T20:30:00.481Z,51.2
2022-12-23T20:35:00.600Z,52.4
2022-12-23T20:40:00.671Z,55.5
2022-12-23T20:45:01.024Z,43.6
2022-12-23T20:55:00.763Z,40.4
2022-12-23T21:00:00.789Z,43.6
2022-12-23T21:05:00.934Z,49.5
2022-12-23T21:10:00.794Z,45.9
2022-12-23T21:15:00.775Z,47.5
2022-12-23T21:20:08.234Z,44.9
2022-12-23T21:25:00.782Z,50.1
2022-12-23T21:30:00.825Z,50.6
2022-12-23T21:35:00.972Z,60.5
2022-12-23T21:40:00.746Z,42.6
2022-12-23T21:45:00.741Z,36.3
2022-12-23T21:50:00.818Z,54.3
2022-12-23T21:55:00.793Z,50.5
2022-12-23T22:00:00.834Z,53.6
2022-12-23T22:05:00.785Z,55.1
2022-12-23T22:10:00.731Z,55.9
2022-12-23T22:15:11.996Z,57.8
2022-12-23T22:20:00.752Z,71.5
2022-12-23T22:25:00.745Z,63.1
2022-12-23T22:30:00.981Z,51.8
2022-12-23T22:35:00.789Z,51.2
2022-12-23T22:40:00.759Z,60.7
2022-12-23T22:45:01.279Z,39.8
2022-12-23T22:50:00.758Z,47.4
2022-12-23T22:55:00.697Z,54.6
2022-12-23T23:00:13.050Z,55.4
2022-12-23T23:05:01.073Z,53.7
2022-12-23T23:10:00.827Z,61.7
2022-12-23T23:15:00.857Z,45.5
2022-12-23T23:20:00.820Z,57.0
2022-12-23T23:25:00.733Z,44.0
2022-12-23T23:30:00.881Z,42.9
2022-12-23T23:35:11.273Z,49.3
2022-12-23T23:40:00.822Z,48.5
2022-12-23T23:45:00.821Z,56.6
2022-12-23T23:50:00.895Z,58.0
2022-12-23T23:55:00.717Z,49.3
